NOZ524 ENGM-ENZV
Flight info
| Callsign | NOZ524 |
|---|---|
| Flight time | 0h 40m |
| Altitude | 32000 |
| Route | ATLAP DCT IPMOD DCT ROPNO |
| Aircraft | B738/M-SDE2E3FGHIRWXY/LB1 |
Departure
| Time | 2026-04-16 06:50 |
|---|---|
| Airport | Oslo-Gardermoen International Airport (ENGM) |
Arrival
| Time | 2026-04-16 07:30 |
|---|---|
| Airport | Stavanger Airport, Sola (ENZV) |
| Time | Latitude | Longitude | Altitude | Speed | Heading |
|---|---|---|---|---|---|
| 2026-04-16 06:37 | 60.19575 | 11.09352 | 684 ft | 0 kts | 196° |
| 2026-04-16 06:40 | 60.19590 | 11.09360 | 682 ft | 4 kts | 196° |
| 2026-04-16 06:40 | 60.19616 | 11.09375 | 682 ft | 4 kts | 196° |
| 2026-04-16 06:40 | 60.19624 | 11.09379 | 679 ft | 1 kts | 196° |
| 2026-04-16 06:44 | 60.19623 | 11.09379 | 679 ft | 0 kts | 196° |
| 2026-04-16 06:44 | 60.19623 | 11.09369 | 681 ft | 1 kts | 257° |
| 2026-04-16 06:44 | 60.19628 | 11.09362 | 682 ft | 1 kts | 328° |
| 2026-04-16 06:45 | 60.19665 | 11.09338 | 683 ft | 9 kts | 339° |
| 2026-04-16 06:45 | 60.19705 | 11.09243 | 682 ft | 9 kts | 291° |
| 2026-04-16 06:45 | 60.19722 | 11.09118 | 682 ft | 9 kts | 284° |
| 2026-04-16 06:45 | 60.19739 | 11.08996 | 680 ft | 9 kts | 285° |
| 2026-04-16 06:46 | 60.19758 | 11.08856 | 676 ft | 12 kts | 285° |
| 2026-04-16 06:46 | 60.19763 | 11.08686 | 676 ft | 13 kts | 237° |
| 2026-04-16 06:46 | 60.19683 | 11.08622 | 676 ft | 12 kts | 197° |
| 2026-04-16 06:46 | 60.19602 | 11.08573 | 677 ft | 12 kts | 197° |
| 2026-04-16 06:47 | 60.19522 | 11.08526 | 677 ft | 12 kts | 196° |
| 2026-04-16 06:47 | 60.19445 | 11.08482 | 676 ft | 11 kts | 196° |
| 2026-04-16 06:47 | 60.19368 | 11.08439 | 675 ft | 12 kts | 196° |
| 2026-04-16 06:47 | 60.19281 | 11.08388 | 674 ft | 13 kts | 196° |
| 2026-04-16 06:48 | 60.19230 | 11.08262 | 672 ft | 13 kts | 282° |
| 2026-04-16 06:48 | 60.19252 | 11.08083 | 671 ft | 14 kts | 284° |
| 2026-04-16 06:48 | 60.19279 | 11.07906 | 668 ft | 13 kts | 285° |
| 2026-04-16 06:48 | 60.19312 | 11.07847 | 671 ft | 0 kts | 8° |
| 2026-04-16 06:49 | 60.19367 | 11.07870 | 671 ft | 32 kts | 14° |
| 2026-04-16 06:49 | 60.19811 | 11.08131 | 673 ft | 100 kts | 16° |
| 2026-04-16 06:49 | 60.20668 | 11.08628 | 679 ft | 154 kts | 16° |
| 2026-04-16 06:50 | 60.21775 | 11.09305 | 1077 ft | 171 kts | 16° |
| 2026-04-16 06:50 | 60.22938 | 11.09979 | 1798 ft | 181 kts | 18° |
| 2026-04-16 06:50 | 60.24255 | 11.10691 | 2129 ft | 210 kts | 18° |
| 2026-04-16 06:50 | 60.25740 | 11.11352 | 2491 ft | 231 kts | 9° |
| 2026-04-16 06:51 | 60.27466 | 11.11025 | 2611 ft | 268 kts | 349° |
| 2026-04-16 06:51 | 60.29320 | 11.10335 | 3382 ft | 272 kts | 349° |
| 2026-04-16 06:51 | 60.31025 | 11.08706 | 4199 ft | 276 kts | 315° |
| 2026-04-16 06:51 | 60.32009 | 11.05457 | 5059 ft | 274 kts | 283° |
| 2026-04-16 06:52 | 60.32126 | 11.01713 | 5839 ft | 273 kts | 259° |
| 2026-04-16 06:52 | 60.31719 | 10.97917 | 6648 ft | 275 kts | 252° |
| 2026-04-16 06:52 | 60.31195 | 10.94191 | 7404 ft | 278 kts | 250° |
| 2026-04-16 06:52 | 60.30643 | 10.90443 | 8232 ft | 279 kts | 250° |
| 2026-04-16 06:53 | 60.30094 | 10.86721 | 9003 ft | 283 kts | 250° |
| 2026-04-16 06:53 | 60.29535 | 10.82899 | 9795 ft | 286 kts | 250° |
| 2026-04-16 06:53 | 60.28969 | 10.78983 | 10526 ft | 290 kts | 250° |
| 2026-04-16 06:53 | 60.28392 | 10.74988 | 10757 ft | 312 kts | 251° |
| 2026-04-16 06:54 | 60.27767 | 10.70643 | 10964 ft | 332 kts | 251° |
| 2026-04-16 06:54 | 60.27118 | 10.66099 | 11455 ft | 342 kts | 251° |
| 2026-04-16 06:54 | 60.26460 | 10.61478 | 12157 ft | 344 kts | 252° |
| 2026-04-16 06:54 | 60.25798 | 10.56830 | 12942 ft | 346 kts | 252° |
| 2026-04-16 06:55 | 60.25130 | 10.52149 | 13700 ft | 350 kts | 252° |
| 2026-04-16 06:55 | 60.24453 | 10.47418 | 14387 ft | 354 kts | 252° |
| 2026-04-16 06:55 | 60.23766 | 10.42636 | 15056 ft | 357 kts | 252° |
| 2026-04-16 06:55 | 60.23070 | 10.37806 | 15731 ft | 361 kts | 252° |
| 2026-04-16 06:56 | 60.22365 | 10.32928 | 16407 ft | 365 kts | 252° |
| 2026-04-16 06:56 | 60.21650 | 10.27998 | 17082 ft | 369 kts | 252° |
| 2026-04-16 06:56 | 60.20926 | 10.23014 | 17749 ft | 373 kts | 251° |
| 2026-04-16 06:56 | 60.20192 | 10.17981 | 18401 ft | 377 kts | 251° |
| 2026-04-16 06:57 | 60.19448 | 10.12891 | 18982 ft | 381 kts | 252° |
| 2026-04-16 06:57 | 60.18695 | 10.07761 | 19559 ft | 384 kts | 252° |
| 2026-04-16 06:57 | 60.17935 | 10.02593 | 20190 ft | 386 kts | 252° |
| 2026-04-16 06:57 | 60.17173 | 9.97421 | 20865 ft | 387 kts | 252° |
| 2026-04-16 06:58 | 60.16405 | 9.92224 | 21420 ft | 390 kts | 252° |
| 2026-04-16 06:58 | 60.15624 | 9.86971 | 21943 ft | 394 kts | 252° |
| 2026-04-16 06:58 | 60.14830 | 9.81681 | 22483 ft | 398 kts | 251° |
| 2026-04-16 06:58 | 60.13793 | 9.76530 | 23033 ft | 400 kts | 243° |
| 2026-04-16 06:59 | 60.12502 | 9.71576 | 23574 ft | 402 kts | 241° |
| 2026-04-16 06:59 | 60.11162 | 9.66612 | 24001 ft | 407 kts | 241° |
| 2026-04-16 06:59 | 60.09810 | 9.61633 | 24510 ft | 406 kts | 241° |
| 2026-04-16 06:59 | 60.08462 | 9.56648 | 25000 ft | 408 kts | 241° |
| 2026-04-16 07:00 | 60.07114 | 9.51629 | 25402 ft | 411 kts | 241° |
| 2026-04-16 07:00 | 60.05760 | 9.46570 | 25802 ft | 414 kts | 242° |
| 2026-04-16 07:00 | 60.04419 | 9.41541 | 26202 ft | 416 kts | 242° |
| 2026-04-16 07:01 | 60.01662 | 9.31201 | 27012 ft | 421 kts | 242° |
| 2026-04-16 07:01 | 60.00279 | 9.26035 | 27527 ft | 420 kts | 240° |
| 2026-04-16 07:01 | 59.98909 | 9.20921 | 28164 ft | 416 kts | 240° |
| 2026-04-16 07:01 | 59.97544 | 9.15837 | 28683 ft | 415 kts | 240° |
| 2026-04-16 07:02 | 59.96192 | 9.10818 | 29136 ft | 416 kts | 240° |
| 2026-04-16 07:02 | 59.94805 | 9.05681 | 29689 ft | 414 kts | 240° |
| 2026-04-16 07:02 | 59.93442 | 9.00642 | 30246 ft | 412 kts | 240° |
| 2026-04-16 07:02 | 59.92079 | 8.95615 | 30647 ft | 412 kts | 240° |
| 2026-04-16 07:03 | 59.90712 | 8.90585 | 31020 ft | 412 kts | 240° |
| 2026-04-16 07:03 | 59.88012 | 8.80681 | 31042 ft | 399 kts | 240° |
| 2026-04-16 07:03 | 59.86703 | 8.75890 | 30793 ft | 391 kts | 239° |
| 2026-04-16 07:04 | 59.85396 | 8.71119 | 30531 ft | 383 kts | 239° |
| 2026-04-16 07:04 | 59.84126 | 8.66493 | 30213 ft | 379 kts | 239° |
| 2026-04-16 07:04 | 59.82882 | 8.61979 | 29812 ft | 376 kts | 239° |
| 2026-04-16 07:04 | 59.81632 | 8.57452 | 29446 ft | 371 kts | 239° |
| 2026-04-16 07:05 | 59.80393 | 8.52981 | 29067 ft | 368 kts | 238° |
| 2026-04-16 07:05 | 59.79169 | 8.48553 | 28708 ft | 364 kts | 238° |
| 2026-04-16 07:05 | 59.77958 | 8.44181 | 28324 ft | 360 kts | 238° |
| 2026-04-16 07:05 | 59.76752 | 8.39832 | 27966 ft | 357 kts | 238° |
| 2026-04-16 07:06 | 59.75559 | 8.35543 | 27616 ft | 353 kts | 238° |
| 2026-04-16 07:06 | 59.74373 | 8.31295 | 27253 ft | 351 kts | 238° |
| 2026-04-16 07:06 | 59.73200 | 8.27075 | 26891 ft | 348 kts | 238° |
| 2026-04-16 07:06 | 59.72043 | 8.22868 | 26512 ft | 347 kts | 239° |
| 2026-04-16 07:07 | 59.70897 | 8.18682 | 26162 ft | 344 kts | 238° |
| 2026-04-16 07:07 | 59.69758 | 8.14526 | 25811 ft | 342 kts | 239° |
| 2026-04-16 07:07 | 59.68625 | 8.10401 | 25458 ft | 340 kts | 239° |
| 2026-04-16 07:07 | 59.67498 | 8.06302 | 25116 ft | 338 kts | 238° |
| 2026-04-16 07:08 | 59.66374 | 8.02228 | 24783 ft | 336 kts | 238° |
| 2026-04-16 07:08 | 59.65256 | 7.98183 | 24448 ft | 334 kts | 239° |
| 2026-04-16 07:08 | 59.64143 | 7.94164 | 24115 ft | 332 kts | 239° |
| 2026-04-16 07:08 | 59.63035 | 7.90170 | 23786 ft | 331 kts | 239° |
| 2026-04-16 07:09 | 59.61931 | 7.86201 | 23399 ft | 329 kts | 239° |
| 2026-04-16 07:09 | 59.60833 | 7.82257 | 23042 ft | 326 kts | 237° |
| 2026-04-16 07:09 | 59.59743 | 7.78346 | 22711 ft | 323 kts | 238° |
| 2026-04-16 07:09 | 59.58663 | 7.74480 | 22379 ft | 320 kts | 237° |
| 2026-04-16 07:10 | 59.57592 | 7.70655 | 22049 ft | 318 kts | 237° |
| 2026-04-16 07:10 | 59.56524 | 7.66848 | 21725 ft | 316 kts | 238° |
| 2026-04-16 07:10 | 59.55466 | 7.63077 | 21432 ft | 313 kts | 237° |
| 2026-04-16 07:10 | 59.54413 | 7.59333 | 21093 ft | 312 kts | 237° |
| 2026-04-16 07:11 | 59.53364 | 7.55614 | 20791 ft | 310 kts | 238° |
| 2026-04-16 07:11 | 59.52334 | 7.51964 | 20449 ft | 308 kts | 238° |
| 2026-04-16 07:11 | 59.51293 | 7.48286 | 20130 ft | 307 kts | 238° |
| 2026-04-16 07:11 | 59.50257 | 7.44624 | 19832 ft | 305 kts | 238° |
| 2026-04-16 07:12 | 59.49225 | 7.40986 | 19520 ft | 304 kts | 238° |
| 2026-04-16 07:12 | 59.48196 | 7.37363 | 19207 ft | 302 kts | 238° |
| 2026-04-16 07:12 | 59.47171 | 7.33762 | 18906 ft | 301 kts | 238° |
| 2026-04-16 07:12 | 59.46150 | 7.30180 | 18604 ft | 300 kts | 238° |
| 2026-04-16 07:13 | 59.45134 | 7.26616 | 18248 ft | 298 kts | 238° |
| 2026-04-16 07:13 | 59.44120 | 7.23069 | 17912 ft | 297 kts | 238° |
| 2026-04-16 07:13 | 59.43115 | 7.19558 | 17632 ft | 294 kts | 238° |
| 2026-04-16 07:13 | 59.42114 | 7.16067 | 17302 ft | 293 kts | 238° |
| 2026-04-16 07:14 | 59.41119 | 7.12598 | 17034 ft | 291 kts | 238° |
| 2026-04-16 07:14 | 59.40127 | 7.09142 | 16740 ft | 289 kts | 235° |
| 2026-04-16 07:14 | 59.39141 | 7.05717 | 16410 ft | 288 kts | 236° |
| 2026-04-16 07:14 | 59.38159 | 7.02315 | 16143 ft | 285 kts | 234° |
| 2026-04-16 07:15 | 59.37182 | 6.98937 | 15823 ft | 285 kts | 236° |
| 2026-04-16 07:15 | 59.36211 | 6.95567 | 15494 ft | 283 kts | 236° |
| 2026-04-16 07:15 | 59.35242 | 6.92221 | 15201 ft | 282 kts | 235° |
| 2026-04-16 07:15 | 59.34602 | 6.90009 | 15006 ft | 281 kts | 234° |
| 2026-04-16 07:16 | 59.33638 | 6.86694 | 14711 ft | 280 kts | 233° |
| 2026-04-16 07:16 | 59.32690 | 6.83368 | 14424 ft | 280 kts | 238° |
| 2026-04-16 07:16 | 59.31813 | 6.79965 | 14123 ft | 280 kts | 240° |
| 2026-04-16 07:16 | 59.30955 | 6.76543 | 13822 ft | 280 kts | 237° |
| 2026-04-16 07:17 | 59.30099 | 6.73136 | 13504 ft | 279 kts | 237° |
| 2026-04-16 07:17 | 59.29251 | 6.69740 | 13170 ft | 277 kts | 237° |
| 2026-04-16 07:17 | 59.28398 | 6.66377 | 12897 ft | 275 kts | 239° |
| 2026-04-16 07:17 | 59.27550 | 6.63029 | 12586 ft | 274 kts | 239° |
| 2026-04-16 07:18 | 59.26702 | 6.59701 | 12299 ft | 273 kts | 239° |
| 2026-04-16 07:18 | 59.25855 | 6.56373 | 12014 ft | 273 kts | 237° |
| 2026-04-16 07:18 | 59.25002 | 6.53050 | 11690 ft | 274 kts | 238° |
| 2026-04-16 07:18 | 59.24159 | 6.49747 | 11509 ft | 268 kts | 237° |
| 2026-04-16 07:19 | 59.23315 | 6.46470 | 11041 ft | 273 kts | 238° |
| 2026-04-16 07:19 | 59.22446 | 6.43099 | 10426 ft | 281 kts | 238° |
| 2026-04-16 07:19 | 59.21560 | 6.39681 | 9792 ft | 283 kts | 238° |
| 2026-04-16 07:19 | 59.20671 | 6.36238 | 9104 ft | 285 kts | 238° |
| 2026-04-16 07:20 | 59.19784 | 6.32780 | 8459 ft | 285 kts | 238° |
| 2026-04-16 07:20 | 59.18893 | 6.29326 | 7848 ft | 286 kts | 238° |
| 2026-04-16 07:20 | 59.17999 | 6.25869 | 7321 ft | 283 kts | 238° |
| 2026-04-16 07:20 | 59.17129 | 6.22497 | 6987 ft | 275 kts | 238° |
| 2026-04-16 07:21 | 59.16278 | 6.19214 | 6699 ft | 268 kts | 238° |
| 2026-04-16 07:21 | 59.15447 | 6.16013 | 6421 ft | 260 kts | 238° |
| 2026-04-16 07:21 | 59.14642 | 6.12908 | 6132 ft | 255 kts | 237° |
| 2026-04-16 07:21 | 59.13853 | 6.09879 | 5856 ft | 245 kts | 236° |
| 2026-04-16 07:22 | 59.13100 | 6.06985 | 5605 ft | 233 kts | 236° |
| 2026-04-16 07:22 | 59.12392 | 6.04261 | 5394 ft | 218 kts | 235° |
| 2026-04-16 07:22 | 59.11722 | 6.01690 | 5174 ft | 207 kts | 234° |
| 2026-04-16 07:22 | 59.11095 | 5.99287 | 5055 ft | 191 kts | 233° |
| 2026-04-16 07:23 | 59.10500 | 5.97017 | 4765 ft | 187 kts | 231° |
| 2026-04-16 07:23 | 59.09915 | 5.94794 | 4551 ft | 185 kts | 231° |
| 2026-04-16 07:23 | 59.09328 | 5.92582 | 4366 ft | 183 kts | 231° |
| 2026-04-16 07:23 | 59.08736 | 5.90354 | 4167 ft | 190 kts | 231° |
| 2026-04-16 07:24 | 59.08105 | 5.87984 | 3975 ft | 204 kts | 231° |
| 2026-04-16 07:24 | 59.07443 | 5.85480 | 3740 ft | 211 kts | 232° |
| 2026-04-16 07:24 | 59.06778 | 5.82950 | 3615 ft | 210 kts | 231° |
| 2026-04-16 07:24 | 59.06115 | 5.80429 | 3521 ft | 209 kts | 231° |
| 2026-04-16 07:25 | 59.05452 | 5.77922 | 3426 ft | 209 kts | 231° |
| 2026-04-16 07:25 | 59.04797 | 5.75367 | 3249 ft | 217 kts | 234° |
| 2026-04-16 07:25 | 59.04255 | 5.72653 | 3146 ft | 212 kts | 237° |
| 2026-04-16 07:25 | 59.03745 | 5.69986 | 3012 ft | 210 kts | 237° |
| 2026-04-16 07:26 | 59.03228 | 5.67317 | 2807 ft | 212 kts | 237° |
| 2026-04-16 07:26 | 59.02596 | 5.64796 | 2605 ft | 198 kts | 216° |
| 2026-04-16 07:26 | 59.01519 | 5.63744 | 2486 ft | 162 kts | 175° |
| 2026-04-16 07:26 | 59.00412 | 5.63589 | 2278 ft | 160 kts | 178° |
| 2026-04-16 07:27 | 58.99327 | 5.63414 | 2066 ft | 152 kts | 171° |
| 2026-04-16 07:27 | 58.98286 | 5.63451 | 1878 ft | 149 kts | 169° |
| 2026-04-16 07:27 | 58.97240 | 5.63494 | 1654 ft | 152 kts | 169° |
| 2026-04-16 07:27 | 58.96196 | 5.63525 | 1437 ft | 148 kts | 168° |
| 2026-04-16 07:28 | 58.95191 | 5.63554 | 1245 ft | 142 kts | 168° |
| 2026-04-16 07:28 | 58.94235 | 5.63572 | 1038 ft | 133 kts | 169° |
| 2026-04-16 07:28 | 58.93315 | 5.63616 | 867 ft | 136 kts | 171° |
| 2026-04-16 07:28 | 58.92368 | 5.63643 | 669 ft | 138 kts | 171° |
| 2026-04-16 07:29 | 58.91432 | 5.63669 | 464 ft | 134 kts | 170° |
| 2026-04-16 07:29 | 58.90507 | 5.63731 | 328 ft | 138 kts | 171° |
| 2026-04-16 07:29 | 58.89510 | 5.63723 | 160 ft | 144 kts | 176° |
| 2026-04-16 07:29 | 58.88592 | 5.63726 | 40 ft | 118 kts | 173° |
| 2026-04-16 07:30 | 58.87899 | 5.63777 | 32 ft | 59 kts | 181° |
| 2026-04-16 07:30 | 58.87700 | 5.63750 | 32 ft | 11 kts | 225° |
| 2026-04-16 07:30 | 58.87694 | 5.63640 | 32 ft | 9 kts | 292° |
| 2026-04-16 07:30 | 58.87721 | 5.63505 | 31 ft | 14 kts | 287° |
| 2026-04-16 07:31 | 58.87764 | 5.63317 | 29 ft | 16 kts | 321° |
| 2026-04-16 07:31 | 58.87869 | 5.63311 | 29 ft | 15 kts | 19° |
| 2026-04-16 07:31 | 58.87966 | 5.63390 | 30 ft | 15 kts | 23° |
| 2026-04-16 07:31 | 58.88064 | 5.63449 | 29 ft | 15 kts | 357° |
| 2026-04-16 07:32 | 58.88134 | 5.63434 | 29 ft | 5 kts | 356° |
| 2026-04-16 07:32 | 58.88172 | 5.63433 | 29 ft | 5 kts | 359° |
| 2026-04-16 07:32 | 58.88188 | 5.63433 | 29 ft | 0 kts | 360° |
| 2026-04-16 07:33 | 58.88189 | 5.63433 | 29 ft | 1 kts | 360° |
| 2026-04-16 07:33 | 58.88206 | 5.63433 | 29 ft | 4 kts | 358° |
| 2026-04-16 07:33 | 58.88246 | 5.63427 | 29 ft | 7 kts | 345° |
| 2026-04-16 07:33 | 58.88272 | 5.63363 | 31 ft | 7 kts | 282° |
| 2026-04-16 07:34 | 58.88303 | 5.63267 | 29 ft | 11 kts | 332° |
| 2026-04-16 07:34 | 58.88383 | 5.63209 | 28 ft | 13 kts | 327° |
| 2026-04-16 07:34 | 58.88413 | 5.63118 | 25 ft | 6 kts | 245° |
| 2026-04-16 07:34 | 58.88380 | 5.63063 | 25 ft | 7 kts | 221° |
| 2026-04-16 07:35 | 58.88356 | 5.63022 | 24 ft | 0 kts | 222° |